sensor_id;sensor_type;location;lat;lon;timestamp;P1;durP1;ratioP1;P2;durP2;ratioP2
41966;SDS011;27656;53.068;8.818;2024-02-21T00:01:16;29.57;;;14.73;;
41966;SDS011;27656;53.068;8.818;2024-02-21T00:03:43;28.17;;;14.50;;
41966;SDS011;27656;53.068;8.818;2024-02-21T00:06:10;24.73;;;14.90;;
41966;SDS011;27656;53.068;8.818;2024-02-21T00:08:36;39.47;;;15.67;;
41966;SDS011;27656;53.068;8.818;2024-02-21T00:11:03;31.63;;;15.10;;
41966;SDS011;27656;53.068;8.818;2024-02-21T00:13:30;31.17;;;14.93;;
41966;SDS011;27656;53.068;8.818;2024-02-21T00:15:56;37.17;;;16.40;;
41966;SDS011;27656;53.068;8.818;2024-02-21T00:18:23;31.50;;;15.93;;
41966;SDS011;27656;53.068;8.818;2024-02-21T00:20:55;35.03;;;15.67;;
41966;SDS011;27656;53.068;8.818;2024-02-21T00:23:22;43.33;;;17.50;;
41966;SDS011;27656;53.068;8.818;2024-02-21T00:25:49;33.20;;;15.87;;
41966;SDS011;27656;53.068;8.818;2024-02-21T00:28:16;34.87;;;17.10;;
41966;SDS011;27656;53.068;8.818;2024-02-21T00:30:43;31.17;;;16.80;;
41966;SDS011;27656;53.068;8.818;2024-02-21T00:33:09;38.93;;;19.23;;
41966;SDS011;27656;53.068;8.818;2024-02-21T00:35:36;37.33;;;17.87;;
41966;SDS011;27656;53.068;8.818;2024-02-21T00:38:02;33.57;;;18.33;;
41966;SDS011;27656;53.068;8.818;2024-02-21T00:40:29;35.03;;;18.73;;
41966;SDS011;27656;53.068;8.818;2024-02-21T00:42:56;46.23;;;20.10;;
41966;SDS011;27656;53.068;8.818;2024-02-21T00:45:23;38.07;;;19.40;;
41966;SDS011;27656;53.068;8.818;2024-02-21T00:47:49;39.93;;;18.87;;
41966;SDS011;27656;53.068;8.818;2024-02-21T00:50:16;41.63;;;19.27;;
41966;SDS011;27656;53.068;8.818;2024-02-21T00:52:43;39.40;;;20.07;;
41966;SDS011;27656;53.068;8.818;2024-02-21T00:55:10;34.40;;;17.93;;
41966;SDS011;27656;53.068;8.818;2024-02-21T00:57:37;32.03;;;18.23;;
41966;SDS011;27656;53.068;8.818;2024-02-21T01:00:04;40.87;;;19.40;;
41966;SDS011;27656;53.068;8.818;2024-02-21T01:02:31;35.73;;;18.20;;
41966;SDS011;27656;53.068;8.818;2024-02-21T01:04:58;38.57;;;18.87;;
41966;SDS011;27656;53.068;8.818;2024-02-21T01:07:25;34.53;;;19.03;;
41966;SDS011;27656;53.068;8.818;2024-02-21T01:09:51;36.67;;;17.40;;
41966;SDS011;27656;53.068;8.818;2024-02-21T01:12:19;37.60;;;18.53;;
41966;SDS011;27656;53.068;8.818;2024-02-21T01:14:46;37.97;;;18.23;;
41966;SDS011;27656;53.068;8.818;2024-02-21T01:17:12;38.17;;;18.63;;
41966;SDS011;27656;53.068;8.818;2024-02-21T01:19:39;40.27;;;18.53;;
41966;SDS011;27656;53.068;8.818;2024-02-21T01:22:06;37.10;;;17.00;;
41966;SDS011;27656;53.068;8.818;2024-02-21T01:24:33;33.53;;;17.17;;
41966;SDS011;27656;53.068;8.818;2024-02-21T01:26:59;36.43;;;17.33;;
41966;SDS011;27656;53.068;8.818;2024-02-21T01:29:26;37.70;;;17.43;;
41966;SDS011;27656;53.068;8.818;2024-02-21T01:31:52;37.00;;;18.27;;
41966;SDS011;27656;53.068;8.818;2024-02-21T01:34:19;36.90;;;19.13;;
41966;SDS011;27656;53.068;8.818;2024-02-21T01:36:45;37.47;;;17.67;;
41966;SDS011;27656;53.068;8.818;2024-02-21T01:39:12;41.03;;;18.90;;
41966;SDS011;27656;53.068;8.818;2024-02-21T01:41:38;34.23;;;17.17;;
41966;SDS011;27656;53.068;8.818;2024-02-21T01:44:05;38.00;;;18.97;;
41966;SDS011;27656;53.068;8.818;2024-02-21T01:46:31;38.60;;;17.87;;
41966;SDS011;27656;53.068;8.818;2024-02-21T01:48:58;36.23;;;16.80;;
41966;SDS011;27656;53.068;8.818;2024-02-21T01:51:26;31.13;;;16.97;;
41966;SDS011;27656;53.068;8.818;2024-02-21T01:53:53;41.57;;;18.03;;
41966;SDS011;27656;53.068;8.818;2024-02-21T01:56:21;42.40;;;17.87;;
41966;SDS011;27656;53.068;8.818;2024-02-21T01:58:48;35.43;;;17.10;;
41966;SDS011;27656;53.068;8.818;2024-02-21T02:01:15;41.53;;;18.57;;
41966;SDS011;27656;53.068;8.818;2024-02-21T02:03:47;32.60;;;17.77;;
41966;SDS011;27656;53.068;8.818;2024-02-21T02:06:14;37.47;;;17.77;;
41966;SDS011;27656;53.068;8.818;2024-02-21T02:08:41;35.57;;;17.30;;
41966;SDS011;27656;53.068;8.818;2024-02-21T02:11:08;37.90;;;17.63;;
41966;SDS011;27656;53.068;8.818;2024-02-21T02:13:35;41.37;;;17.57;;
41966;SDS011;27656;53.068;8.818;2024-02-21T02:16:01;34.03;;;17.33;;
41966;SDS011;27656;53.068;8.818;2024-02-21T02:18:28;42.03;;;17.47;;
41966;SDS011;27656;53.068;8.818;2024-02-21T02:20:55;38.53;;;18.80;;
41966;SDS011;27656;53.068;8.818;2024-02-21T02:23:26;34.40;;;16.97;;
41966;SDS011;27656;53.068;8.818;2024-02-21T02:25:55;38.83;;;18.00;;
41966;SDS011;27656;53.068;8.818;2024-02-21T02:28:22;36.50;;;17.83;;
41966;SDS011;27656;53.068;8.818;2024-02-21T02:30:49;39.47;;;17.03;;
41966;SDS011;27656;53.068;8.818;2024-02-21T02:33:16;35.03;;;17.53;;
41966;SDS011;27656;53.068;8.818;2024-02-21T02:35:46;36.60;;;17.87;;
41966;SDS011;27656;53.068;8.818;2024-02-21T02:38:13;36.37;;;17.63;;
41966;SDS011;27656;53.068;8.818;2024-02-21T02:40:40;34.53;;;17.83;;
41966;SDS011;27656;53.068;8.818;2024-02-21T02:43:07;41.23;;;17.43;;
41966;SDS011;27656;53.068;8.818;2024-02-21T02:45:34;31.83;;;17.40;;
41966;SDS011;27656;53.068;8.818;2024-02-21T02:48:00;38.43;;;17.80;;
41966;SDS011;27656;53.068;8.818;2024-02-21T02:50:27;34.60;;;17.63;;
41966;SDS011;27656;53.068;8.818;2024-02-21T02:52:54;33.83;;;17.93;;
41966;SDS011;27656;53.068;8.818;2024-02-21T02:55:21;31.80;;;16.70;;
41966;SDS011;27656;53.068;8.818;2024-02-21T02:57:48;34.90;;;16.50;;
41966;SDS011;27656;53.068;8.818;2024-02-21T03:00:15;36.63;;;16.77;;
41966;SDS011;27656;53.068;8.818;2024-02-21T03:02:42;33.87;;;15.57;;
41966;SDS011;27656;53.068;8.818;2024-02-21T03:05:15;39.53;;;18.57;;
41966;SDS011;27656;53.068;8.818;2024-02-21T03:07:45;33.67;;;16.30;;
41966;SDS011;27656;53.068;8.818;2024-02-21T03:10:12;33.97;;;16.07;;
41966;SDS011;27656;53.068;8.818;2024-02-21T03:12:40;31.93;;;16.67;;
41966;SDS011;27656;53.068;8.818;2024-02-21T03:15:06;31.07;;;15.73;;
41966;SDS011;27656;53.068;8.818;2024-02-21T03:17:33;32.87;;;16.23;;
41966;SDS011;27656;53.068;8.818;2024-02-21T03:20:03;35.07;;;16.40;;
41966;SDS011;27656;53.068;8.818;2024-02-21T03:22:39;27.90;;;15.53;;
41966;SDS011;27656;53.068;8.818;2024-02-21T03:25:07;31.13;;;16.53;;
41966;SDS011;27656;53.068;8.818;2024-02-21T03:27:34;33.17;;;16.63;;
41966;SDS011;27656;53.068;8.818;2024-02-21T03:30:01;28.27;;;15.10;;
41966;SDS011;27656;53.068;8.818;2024-02-21T03:32:27;36.83;;;17.03;;
41966;SDS011;27656;53.068;8.818;2024-02-21T03:34:57;42.30;;;16.70;;
41966;SDS011;27656;53.068;8.818;2024-02-21T03:37:23;32.63;;;15.17;;
41966;SDS011;27656;53.068;8.818;2024-02-21T03:39:50;35.03;;;17.70;;
41966;SDS011;27656;53.068;8.818;2024-02-21T03:42:16;39.27;;;16.83;;
41966;SDS011;27656;53.068;8.818;2024-02-21T03:44:43;31.97;;;16.17;;
41966;SDS011;27656;53.068;8.818;2024-02-21T03:47:10;31.10;;;16.40;;
41966;SDS011;27656;53.068;8.818;2024-02-21T03:49:38;36.40;;;17.23;;
41966;SDS011;27656;53.068;8.818;2024-02-21T03:52:05;38.67;;;16.17;;
41966;SDS011;27656;53.068;8.818;2024-02-21T03:54:31;29.80;;;16.03;;
41966;SDS011;27656;53.068;8.818;2024-02-21T03:56:58;35.87;;;16.90;;
41966;SDS011;27656;53.068;8.818;2024-02-21T03:59:24;34.63;;;16.37;;
41966;SDS011;27656;53.068;8.818;2024-02-21T04:01:51;35.90;;;16.93;;
41966;SDS011;27656;53.068;8.818;2024-02-21T04:04:20;28.20;;;16.07;;
41966;SDS011;27656;53.068;8.818;2024-02-21T04:06:50;32.37;;;16.43;;
41966;SDS011;27656;53.068;8.818;2024-02-21T04:09:17;29.83;;;15.80;;
41966;SDS011;27656;53.068;8.818;2024-02-21T04:11:44;35.20;;;17.47;;
41966;SDS011;27656;53.068;8.818;2024-02-21T04:14:11;28.20;;;16.17;;
41966;SDS011;27656;53.068;8.818;2024-02-21T04:16:38;33.87;;;16.00;;
41966;SDS011;27656;53.068;8.818;2024-02-21T04:19:05;33.33;;;16.87;;
41966;SDS011;27656;53.068;8.818;2024-02-21T04:21:32;30.60;;;15.93;;
41966;SDS011;27656;53.068;8.818;2024-02-21T04:23:59;33.53;;;16.80;;
41966;SDS011;27656;53.068;8.818;2024-02-21T04:26:25;35.17;;;17.30;;
41966;SDS011;27656;53.068;8.818;2024-02-21T04:28:52;36.23;;;17.57;;
41966;SDS011;27656;53.068;8.818;2024-02-21T04:31:19;31.10;;;16.37;;
41966;SDS011;27656;53.068;8.818;2024-02-21T04:33:46;34.07;;;16.50;;
41966;SDS011;27656;53.068;8.818;2024-02-21T04:36:12;25.27;;;16.37;;
41966;SDS011;27656;53.068;8.818;2024-02-21T04:38:39;28.20;;;15.83;;
41966;SDS011;27656;53.068;8.818;2024-02-21T04:41:07;25.37;;;15.93;;
41966;SDS011;27656;53.068;8.818;2024-02-21T04:43:34;32.03;;;16.53;;
41966;SDS011;27656;53.068;8.818;2024-02-21T04:46:00;26.87;;;15.27;;
41966;SDS011;27656;53.068;8.818;2024-02-21T04:48:27;30.20;;;15.70;;
41966;SDS011;27656;53.068;8.818;2024-02-21T04:50:54;32.70;;;15.17;;
41966;SDS011;27656;53.068;8.818;2024-02-21T04:53:20;29.97;;;15.23;;
41966;SDS011;27656;53.068;8.818;2024-02-21T04:55:47;29.00;;;15.90;;
41966;SDS011;27656;53.068;8.818;2024-02-21T04:58:13;29.70;;;15.17;;
41966;SDS011;27656;53.068;8.818;2024-02-21T05:00:40;23.60;;;14.50;;
41966;SDS011;27656;53.068;8.818;2024-02-21T05:03:07;24.90;;;14.70;;
41966;SDS011;27656;53.068;8.818;2024-02-21T05:05:33;27.60;;;14.20;;
41966;SDS011;27656;53.068;8.818;2024-02-21T05:08:00;25.80;;;13.93;;
41966;SDS011;27656;53.068;8.818;2024-02-21T05:10:26;26.53;;;13.80;;
41966;SDS011;27656;53.068;8.818;2024-02-21T05:12:53;23.10;;;13.83;;
41966;SDS011;27656;53.068;8.818;2024-02-21T05:15:20;24.13;;;13.63;;
41966;SDS011;27656;53.068;8.818;2024-02-21T05:17:46;23.90;;;14.27;;
41966;SDS011;27656;53.068;8.818;2024-02-21T05:20:13;22.67;;;13.50;;
41966;SDS011;27656;53.068;8.818;2024-02-21T05:22:39;22.50;;;13.73;;
41966;SDS011;27656;53.068;8.818;2024-02-21T05:25:06;22.90;;;13.33;;
41966;SDS011;27656;53.068;8.818;2024-02-21T05:27:33;24.70;;;13.50;;
41966;SDS011;27656;53.068;8.818;2024-02-21T05:30:01;21.13;;;13.40;;
41966;SDS011;27656;53.068;8.818;2024-02-21T05:32:27;24.37;;;12.70;;
41966;SDS011;27656;53.068;8.818;2024-02-21T05:34:54;19.57;;;12.50;;
41966;SDS011;27656;53.068;8.818;2024-02-21T05:37:21;21.53;;;12.40;;
41966;SDS011;27656;53.068;8.818;2024-02-21T05:39:47;19.03;;;13.37;;
41966;SDS011;27656;53.068;8.818;2024-02-21T05:42:14;20.93;;;13.30;;
41966;SDS011;27656;53.068;8.818;2024-02-21T05:44:40;22.83;;;13.40;;
41966;SDS011;27656;53.068;8.818;2024-02-21T05:47:07;20.67;;;12.80;;
41966;SDS011;27656;53.068;8.818;2024-02-21T05:49:36;19.37;;;12.50;;
41966;SDS011;27656;53.068;8.818;2024-02-21T05:52:03;17.33;;;11.53;;
41966;SDS011;27656;53.068;8.818;2024-02-21T05:54:32;18.50;;;11.63;;
41966;SDS011;27656;53.068;8.818;2024-02-21T05:56:59;18.80;;;11.47;;
41966;SDS011;27656;53.068;8.818;2024-02-21T05:59:25;17.53;;;11.30;;
41966;SDS011;27656;53.068;8.818;2024-02-21T06:01:55;20.37;;;11.93;;
41966;SDS011;27656;53.068;8.818;2024-02-21T06:04:24;18.00;;;11.00;;
41966;SDS011;27656;53.068;8.818;2024-02-21T06:06:50;18.83;;;12.03;;
41966;SDS011;27656;53.068;8.818;2024-02-21T06:09:17;17.63;;;12.40;;
41966;SDS011;27656;53.068;8.818;2024-02-21T06:11:43;17.23;;;11.20;;
41966;SDS011;27656;53.068;8.818;2024-02-21T06:14:12;19.37;;;12.30;;
41966;SDS011;27656;53.068;8.818;2024-02-21T06:16:39;15.80;;;11.43;;
41966;SDS011;27656;53.068;8.818;2024-02-21T06:19:05;19.27;;;11.10;;
41966;SDS011;27656;53.068;8.818;2024-02-21T06:21:35;18.87;;;11.67;;
41966;SDS011;27656;53.068;8.818;2024-02-21T06:24:02;19.23;;;11.90;;
41966;SDS011;27656;53.068;8.818;2024-02-21T06:26:29;16.80;;;11.80;;
41966;SDS011;27656;53.068;8.818;2024-02-21T06:28:56;18.67;;;11.87;;
41966;SDS011;27656;53.068;8.818;2024-02-21T06:31:23;19.73;;;11.77;;
41966;SDS011;27656;53.068;8.818;2024-02-21T06:33:50;20.83;;;12.83;;
41966;SDS011;27656;53.068;8.818;2024-02-21T06:36:17;21.40;;;12.10;;
41966;SDS011;27656;53.068;8.818;2024-02-21T06:38:43;16.77;;;12.17;;
41966;SDS011;27656;53.068;8.818;2024-02-21T06:41:16;18.27;;;12.17;;
41966;SDS011;27656;53.068;8.818;2024-02-21T06:43:48;17.60;;;12.00;;
41966;SDS011;27656;53.068;8.818;2024-02-21T06:46:24;18.17;;;12.60;;
41966;SDS011;27656;53.068;8.818;2024-02-21T06:49:00;18.93;;;12.57;;
41966;SDS011;27656;53.068;8.818;2024-02-21T06:51:27;19.87;;;12.13;;
41966;SDS011;27656;53.068;8.818;2024-02-21T06:53:54;18.60;;;12.60;;
41966;SDS011;27656;53.068;8.818;2024-02-21T06:56:23;19.83;;;12.73;;
41966;SDS011;27656;53.068;8.818;2024-02-21T06:58:55;22.37;;;13.63;;
41966;SDS011;27656;53.068;8.818;2024-02-21T07:01:22;22.13;;;13.47;;
41966;SDS011;27656;53.068;8.818;2024-02-21T07:03:49;24.77;;;13.53;;
41966;SDS011;27656;53.068;8.818;2024-02-21T07:06:16;23.10;;;14.27;;
41966;SDS011;27656;53.068;8.818;2024-02-21T07:08:42;21.70;;;13.97;;
41966;SDS011;27656;53.068;8.818;2024-02-21T07:11:09;21.67;;;14.30;;
41966;SDS011;27656;53.068;8.818;2024-02-21T07:13:36;19.77;;;13.80;;
41966;SDS011;27656;53.068;8.818;2024-02-21T07:16:02;22.77;;;14.10;;
41966;SDS011;27656;53.068;8.818;2024-02-21T07:18:29;24.53;;;15.00;;
41966;SDS011;27656;53.068;8.818;2024-02-21T07:20:55;21.43;;;14.70;;
41966;SDS011;27656;53.068;8.818;2024-02-21T07:23:22;23.80;;;14.50;;
41966;SDS011;27656;53.068;8.818;2024-02-21T07:25:49;26.53;;;14.90;;
41966;SDS011;27656;53.068;8.818;2024-02-21T07:28:15;30.10;;;14.93;;
41966;SDS011;27656;53.068;8.818;2024-02-21T07:30:43;27.17;;;14.67;;
41966;SDS011;27656;53.068;8.818;2024-02-21T07:33:10;22.77;;;14.30;;
41966;SDS011;27656;53.068;8.818;2024-02-21T07:35:36;27.20;;;15.67;;
41966;SDS011;27656;53.068;8.818;2024-02-21T07:38:07;26.63;;;14.90;;
41966;SDS011;27656;53.068;8.818;2024-02-21T07:40:38;27.27;;;15.43;;
41966;SDS011;27656;53.068;8.818;2024-02-21T07:43:05;23.07;;;14.70;;
41966;SDS011;27656;53.068;8.818;2024-02-21T07:45:31;23.00;;;15.03;;
41966;SDS011;27656;53.068;8.818;2024-02-21T07:47:58;26.67;;;16.20;;
41966;SDS011;27656;53.068;8.818;2024-02-21T07:50:24;27.40;;;16.57;;
41966;SDS011;27656;53.068;8.818;2024-02-21T07:52:51;36.40;;;17.77;;
41966;SDS011;27656;53.068;8.818;2024-02-21T07:55:17;28.30;;;16.97;;
41966;SDS011;27656;53.068;8.818;2024-02-21T07:57:44;36.10;;;18.83;;
41966;SDS011;27656;53.068;8.818;2024-02-21T10:32:52;25.83;;;12.43;;
41966;SDS011;27656;53.068;8.818;2024-02-21T10:35:26;18.17;;;12.03;;
41966;SDS011;27656;53.068;8.818;2024-02-21T10:37:55;24.73;;;12.70;;
41966;SDS011;27656;53.068;8.818;2024-02-21T10:40:23;22.63;;;12.00;;
41966;SDS011;27656;53.068;8.818;2024-02-21T10:42:57;21.30;;;12.20;;
41966;SDS011;27656;53.068;8.818;2024-02-21T10:45:29;21.87;;;12.37;;
41966;SDS011;27656;53.068;8.818;2024-02-21T10:48:41;21.83;;;12.07;;
41966;SDS011;27656;53.068;8.818;2024-02-21T10:51:17;21.43;;;11.83;;
41966;SDS011;27656;53.068;8.818;2024-02-21T10:58:57;21.53;;;11.43;;
41966;SDS011;27656;53.068;8.818;2024-02-21T11:01:24;19.27;;;11.40;;
41966;SDS011;27656;53.068;8.818;2024-02-21T11:03:56;18.63;;;10.77;;
41966;SDS011;27656;53.068;8.818;2024-02-21T11:06:24;24.57;;;11.03;;
41966;SDS011;27656;53.068;8.818;2024-02-21T11:08:59;19.77;;;10.80;;
41966;SDS011;27656;53.068;8.818;2024-02-21T11:11:27;19.73;;;11.07;;
41966;SDS011;27656;53.068;8.818;2024-02-21T11:16:36;20.50;;;10.47;;
41966;SDS011;27656;53.068;8.818;2024-02-21T11:19:10;15.57;;;9.37;;
41966;SDS011;27656;53.068;8.818;2024-02-21T11:21:37;16.07;;;9.40;;
41966;SDS011;27656;53.068;8.818;2024-02-21T11:24:04;16.87;;;9.60;;
41966;SDS011;27656;53.068;8.818;2024-02-21T11:26:31;14.53;;;8.93;;
41966;SDS011;27656;53.068;8.818;2024-02-21T11:28:59;16.93;;;8.93;;
41966;SDS011;27656;53.068;8.818;2024-02-21T11:31:37;18.17;;;8.37;;
41966;SDS011;27656;53.068;8.818;2024-02-21T11:34:09;12.37;;;7.90;;
41966;SDS011;27656;53.068;8.818;2024-02-21T11:36:45;17.27;;;8.03;;
41966;SDS011;27656;53.068;8.818;2024-02-21T11:39:17;15.80;;;8.30;;
41966;SDS011;27656;53.068;8.818;2024-02-21T11:42:03;14.43;;;8.10;;
41966;SDS011;27656;53.068;8.818;2024-02-21T11:44:31;13.97;;;7.60;;
41966;SDS011;27656;53.068;8.818;2024-02-21T11:46:58;15.53;;;7.63;;
41966;SDS011;27656;53.068;8.818;2024-02-21T11:49:25;19.00;;;7.90;;
41966;SDS011;27656;53.068;8.818;2024-02-21T11:52:02;16.57;;;7.07;;
41966;SDS011;27656;53.068;8.818;2024-02-21T11:54:33;13.63;;;7.27;;
41966;SDS011;27656;53.068;8.818;2024-02-21T11:57:00;13.30;;;8.67;;
41966;SDS011;27656;53.068;8.818;2024-02-21T11:59:29;14.23;;;7.33;;
41966;SDS011;27656;53.068;8.818;2024-02-21T12:01:58;16.83;;;7.23;;
41966;SDS011;27656;53.068;8.818;2024-02-21T12:04:25;17.50;;;7.37;;
41966;SDS011;27656;53.068;8.818;2024-02-21T12:06:53;11.97;;;6.47;;
41966;SDS011;27656;53.068;8.818;2024-02-21T12:09:22;11.57;;;5.80;;
41966;SDS011;27656;53.068;8.818;2024-02-21T12:11:56;13.33;;;6.70;;
41966;SDS011;27656;53.068;8.818;2024-02-21T12:14:28;12.37;;;6.17;;
41966;SDS011;27656;53.068;8.818;2024-02-21T12:16:56;11.33;;;5.87;;
41966;SDS011;27656;53.068;8.818;2024-02-21T12:19:23;12.60;;;6.17;;
41966;SDS011;27656;53.068;8.818;2024-02-21T12:21:50;15.07;;;6.27;;
41966;SDS011;27656;53.068;8.818;2024-02-21T12:24:17;10.93;;;6.00;;
41966;SDS011;27656;53.068;8.818;2024-02-21T12:26:48;13.13;;;6.10;;
41966;SDS011;27656;53.068;8.818;2024-02-21T12:29:15;12.77;;;5.93;;
41966;SDS011;27656;53.068;8.818;2024-02-21T12:31:41;16.03;;;5.10;;
41966;SDS011;27656;53.068;8.818;2024-02-21T12:34:11;13.73;;;5.13;;
41966;SDS011;27656;53.068;8.818;2024-02-21T12:36:44;10.97;;;4.90;;
41966;SDS011;27656;53.068;8.818;2024-02-21T12:39:14;15.83;;;5.07;;
41966;SDS011;27656;53.068;8.818;2024-02-21T12:41:42;11.20;;;5.40;;
41966;SDS011;27656;53.068;8.818;2024-02-21T12:44:10;11.13;;;5.13;;
41966;SDS011;27656;53.068;8.818;2024-02-21T12:46:37;14.20;;;5.20;;
41966;SDS011;27656;53.068;8.818;2024-02-21T12:49:06;7.63;;;4.77;;
41966;SDS011;27656;53.068;8.818;2024-02-21T12:51:36;10.90;;;4.93;;
41966;SDS011;27656;53.068;8.818;2024-02-21T12:54:02;15.67;;;5.30;;
41966;SDS011;27656;53.068;8.818;2024-02-21T12:56:29;13.13;;;4.67;;
41966;SDS011;27656;53.068;8.818;2024-02-21T12:58:57;9.70;;;4.77;;
41966;SDS011;27656;53.068;8.818;2024-02-21T13:01:24;10.93;;;4.70;;
41966;SDS011;27656;53.068;8.818;2024-02-21T13:03:50;11.13;;;4.50;;
41966;SDS011;27656;53.068;8.818;2024-02-21T13:06:17;12.23;;;5.30;;
41966;SDS011;27656;53.068;8.818;2024-02-21T13:08:45;10.70;;;4.57;;
41966;SDS011;27656;53.068;8.818;2024-02-21T13:11:12;10.57;;;4.60;;
41966;SDS011;27656;53.068;8.818;2024-02-21T13:13:39;11.33;;;5.10;;
41966;SDS011;27656;53.068;8.818;2024-02-21T13:16:06;9.03;;;4.50;;
41966;SDS011;27656;53.068;8.818;2024-02-21T13:18:34;12.97;;;4.90;;
41966;SDS011;27656;53.068;8.818;2024-02-21T13:21:01;9.77;;;5.27;;
41966;SDS011;27656;53.068;8.818;2024-02-21T13:23:28;10.70;;;4.90;;
41966;SDS011;27656;53.068;8.818;2024-02-21T13:25:55;7.70;;;5.67;;
41966;SDS011;27656;53.068;8.818;2024-02-21T13:28:21;10.30;;;5.77;;
41966;SDS011;27656;53.068;8.818;2024-02-21T13:30:48;12.03;;;6.43;;
41966;SDS011;27656;53.068;8.818;2024-02-21T13:33:14;12.37;;;6.73;;
41966;SDS011;27656;53.068;8.818;2024-02-21T13:35:41;11.00;;;7.10;;
41966;SDS011;27656;53.068;8.818;2024-02-21T13:38:07;13.10;;;7.70;;
41966;SDS011;27656;53.068;8.818;2024-02-21T13:40:36;8.50;;;7.03;;
41966;SDS011;27656;53.068;8.818;2024-02-21T13:43:03;11.67;;;7.47;;
41966;SDS011;27656;53.068;8.818;2024-02-21T13:45:29;10.90;;;7.37;;
41966;SDS011;27656;53.068;8.818;2024-02-21T13:47:56;12.57;;;8.10;;
41966;SDS011;27656;53.068;8.818;2024-02-21T13:50:27;10.97;;;7.63;;
41966;SDS011;27656;53.068;8.818;2024-02-21T13:52:56;13.10;;;7.27;;
41966;SDS011;27656;53.068;8.818;2024-02-21T13:55:22;11.80;;;7.77;;
41966;SDS011;27656;53.068;8.818;2024-02-21T13:57:52;10.30;;;7.27;;
41966;SDS011;27656;53.068;8.818;2024-02-21T14:00:19;12.93;;;7.63;;
41966;SDS011;27656;53.068;8.818;2024-02-21T14:02:46;10.10;;;7.97;;
41966;SDS011;27656;53.068;8.818;2024-02-21T14:05:12;9.47;;;6.67;;
41966;SDS011;27656;53.068;8.818;2024-02-21T14:07:40;12.30;;;7.63;;
41966;SDS011;27656;53.068;8.818;2024-02-21T14:10:08;11.63;;;7.27;;
41966;SDS011;27656;53.068;8.818;2024-02-21T14:12:35;11.60;;;7.27;;
41966;SDS011;27656;53.068;8.818;2024-02-21T14:15:02;12.47;;;8.30;;
41966;SDS011;27656;53.068;8.818;2024-02-21T14:17:28;13.73;;;8.30;;
41966;SDS011;27656;53.068;8.818;2024-02-21T14:19:55;10.40;;;7.67;;
41966;SDS011;27656;53.068;8.818;2024-02-21T14:22:22;11.73;;;7.57;;
41966;SDS011;27656;53.068;8.818;2024-02-21T14:24:48;12.70;;;7.30;;
41966;SDS011;27656;53.068;8.818;2024-02-21T14:27:14;12.47;;;7.57;;
41966;SDS011;27656;53.068;8.818;2024-02-21T14:29:41;9.23;;;6.80;;
41966;SDS011;27656;53.068;8.818;2024-02-21T14:32:07;12.10;;;7.67;;
41966;SDS011;27656;53.068;8.818;2024-02-21T14:34:36;8.57;;;6.73;;
41966;SDS011;27656;53.068;8.818;2024-02-21T14:37:02;10.20;;;6.90;;
41966;SDS011;27656;53.068;8.818;2024-02-21T14:39:30;14.70;;;7.10;;
41966;SDS011;27656;53.068;8.818;2024-02-21T14:41:56;10.93;;;6.37;;
41966;SDS011;27656;53.068;8.818;2024-02-21T14:44:23;10.43;;;5.80;;
41966;SDS011;27656;53.068;8.818;2024-02-21T14:46:49;10.37;;;5.57;;
41966;SDS011;27656;53.068;8.818;2024-02-21T14:49:16;12.50;;;5.70;;
41966;SDS011;27656;53.068;8.818;2024-02-21T14:51:46;9.80;;;5.07;;
41966;SDS011;27656;53.068;8.818;2024-02-21T14:54:13;10.63;;;5.40;;
41966;SDS011;27656;53.068;8.818;2024-02-21T14:56:39;7.13;;;4.13;;
41966;SDS011;27656;53.068;8.818;2024-02-21T14:59:06;8.50;;;5.17;;
41966;SDS011;27656;53.068;8.818;2024-02-21T15:01:43;9.67;;;5.07;;
41966;SDS011;27656;53.068;8.818;2024-02-21T15:04:10;10.83;;;5.40;;
41966;SDS011;27656;53.068;8.818;2024-02-21T15:06:36;9.57;;;4.77;;
41966;SDS011;27656;53.068;8.818;2024-02-21T15:09:03;9.67;;;5.43;;
41966;SDS011;27656;53.068;8.818;2024-02-21T15:11:32;8.67;;;5.47;;
41966;SDS011;27656;53.068;8.818;2024-02-21T15:13:59;10.53;;;5.20;;
41966;SDS011;27656;53.068;8.818;2024-02-21T15:16:25;11.93;;;5.07;;
41966;SDS011;27656;53.068;8.818;2024-02-21T15:18:52;11.27;;;5.23;;
41966;SDS011;27656;53.068;8.818;2024-02-21T15:21:19;10.10;;;6.20;;
41966;SDS011;27656;53.068;8.818;2024-02-21T15:23:45;11.57;;;5.27;;
41966;SDS011;27656;53.068;8.818;2024-02-21T15:26:11;13.00;;;5.47;;
41966;SDS011;27656;53.068;8.818;2024-02-21T15:28:39;10.53;;;5.67;;
41966;SDS011;27656;53.068;8.818;2024-02-21T15:31:06;10.17;;;5.70;;
41966;SDS011;27656;53.068;8.818;2024-02-21T15:33:33;10.03;;;6.60;;
41966;SDS011;27656;53.068;8.818;2024-02-21T15:36:04;14.43;;;7.43;;
41966;SDS011;27656;53.068;8.818;2024-02-21T15:38:31;17.57;;;7.53;;
41966;SDS011;27656;53.068;8.818;2024-02-21T15:40:57;15.40;;;7.77;;
41966;SDS011;27656;53.068;8.818;2024-02-21T15:43:24;11.60;;;7.53;;
41966;SDS011;27656;53.068;8.818;2024-02-21T15:45:51;12.73;;;8.63;;
41966;SDS011;27656;53.068;8.818;2024-02-21T15:48:17;19.03;;;8.77;;
41966;SDS011;27656;53.068;8.818;2024-02-21T15:50:44;14.30;;;8.70;;
41966;SDS011;27656;53.068;8.818;2024-02-21T15:53:14;17.47;;;8.93;;
41966;SDS011;27656;53.068;8.818;2024-02-21T15:55:41;15.17;;;8.00;;
41966;SDS011;27656;53.068;8.818;2024-02-21T15:58:08;15.93;;;9.10;;
41966;SDS011;27656;53.068;8.818;2024-02-21T16:00:34;15.87;;;8.80;;
41966;SDS011;27656;53.068;8.818;2024-02-21T16:03:01;16.90;;;8.33;;
41966;SDS011;27656;53.068;8.818;2024-02-21T16:05:29;16.97;;;9.20;;
41966;SDS011;27656;53.068;8.818;2024-02-21T16:07:55;13.63;;;7.73;;
41966;SDS011;27656;53.068;8.818;2024-02-21T16:10:22;16.77;;;8.37;;
41966;SDS011;27656;53.068;8.818;2024-02-21T16:12:48;16.07;;;8.47;;
41966;SDS011;27656;53.068;8.818;2024-02-21T16:15:17;16.73;;;8.57;;
41966;SDS011;27656;53.068;8.818;2024-02-21T16:17:43;21.73;;;8.93;;
41966;SDS011;27656;53.068;8.818;2024-02-21T16:20:10;17.47;;;9.00;;
41966;SDS011;27656;53.068;8.818;2024-02-21T16:22:37;18.57;;;8.37;;
41966;SDS011;27656;53.068;8.818;2024-02-21T16:25:04;17.10;;;8.23;;
41966;SDS011;27656;53.068;8.818;2024-02-21T16:27:30;15.67;;;8.00;;
41966;SDS011;27656;53.068;8.818;2024-02-21T16:29:57;18.63;;;7.83;;
41966;SDS011;27656;53.068;8.818;2024-02-21T16:32:23;16.47;;;8.00;;
41966;SDS011;27656;53.068;8.818;2024-02-21T16:34:50;16.73;;;7.37;;
41966;SDS011;27656;53.068;8.818;2024-02-21T16:37:18;13.67;;;6.70;;
41966;SDS011;27656;53.068;8.818;2024-02-21T16:39:44;16.70;;;8.20;;
41966;SDS011;27656;53.068;8.818;2024-02-21T16:42:10;17.17;;;7.20;;
41966;SDS011;27656;53.068;8.818;2024-02-21T16:44:37;12.83;;;7.70;;
41966;SDS011;27656;53.068;8.818;2024-02-21T16:47:04;17.13;;;7.83;;
41966;SDS011;27656;53.068;8.818;2024-02-21T16:49:30;18.23;;;7.80;;
41966;SDS011;27656;53.068;8.818;2024-02-21T16:52:02;19.60;;;7.70;;
41966;SDS011;27656;53.068;8.818;2024-02-21T16:54:30;13.77;;;7.17;;
41966;SDS011;27656;53.068;8.818;2024-02-21T16:56:56;14.47;;;7.10;;
41966;SDS011;27656;53.068;8.818;2024-02-21T16:59:23;18.47;;;7.67;;
41966;SDS011;27656;53.068;8.818;2024-02-21T17:01:49;12.47;;;7.07;;
41966;SDS011;27656;53.068;8.818;2024-02-21T17:04:18;14.40;;;7.43;;
41966;SDS011;27656;53.068;8.818;2024-02-21T17:06:45;13.50;;;7.60;;
41966;SDS011;27656;53.068;8.818;2024-02-21T17:09:12;14.07;;;7.17;;
41966;SDS011;27656;53.068;8.818;2024-02-21T17:11:39;16.80;;;6.87;;